METAR Data
IDs: Format: Raw Decoded Include TAF

Data at: 1416 UTC 10 Aug 2022

KSNA 101353Z 23003KT 10SM FEW015 23/18 A2998 RMK AO2 SLP152 T02280178
KSNA 101253Z 00000KT 10SM FEW300 23/16 A2996 RMK AO2 SLP144 T02280161
KSNA 101153Z AUTO 00000KT 10SM CLR 23/16 A2994 RMK AO2 SLP138 T02330161 10244 20228 58005
KSNA 101053Z AUTO 20004KT 10SM CLR 23/16 A2995 RMK AO2 SLP140 T02280161
KSNA 100953Z AUTO 00000KT 10SM CLR 24/16 A2995 RMK AO2 SLP140 T02390161
KSNA 100853Z AUTO 00000KT 10SM CLR 24/16 A2996 RMK AO2 SLP143 T02440161 58004
KSNA 100753Z AUTO 00000KT 10SM CLR 24/16 A2996 RMK AO2 SLP143 T02440156 403170228
KSNA 100653Z AUTO 00000KT 10SM CLR 24/16 A2997 RMK AO2 SLP146 T02390156
KSNA 100553Z COR 22004KT 10SM SCT140 BKN300 23/17 A2997 RMK AO2 SLP147 LAST T02330172 10289 20233 51021
KSNA 100453Z 22004KT 10SM BKN140 BKN300 23/18 A2996 RMK AO2 SLP142 T02330178
KSNA 100353Z 21007KT 10SM SCT160 SCT300 24/18 A2993 RMK AO2 SLP133 T02390183
KSNA 100253Z 21007KT 10SM FEW060 BKN180 BKN300 25/17 A2991 RMK AO2 SLP125 CB DSNT NE T02500172 53008
KSNA 100153Z COR 22008KT 10SM FEW060 FEW180 SCT300 26/16 A2989 RMK AO2 SLP121 TCU DSNT N T02610161
KSNA 100053Z 21010KT 10SM FEW060 FEW180 SCT300 28/16 A2988 RMK AO2 SLP116 CB DSNT N T02780161
KSNA 092353Z 24007KT 10SM FEW060 FEW180 SCT300 28/17 A2988 RMK AO2 SLP117 CB DSNT N TCU DSNT NE AND E ACSL N T02830167 10317 20278 56010
KSNA 092253Z 22008KT 10SM FEW060 FEW180 SCT300 30/16 A2988 RMK AO2 SLP118 TCU DSNT N-NE AND SE T03000161
KSNA 092153Z 20011KT 10SM FEW060 FEW180 SCT300 31/17 A2990 RMK AO2 SLP122 CB DSNT N AND E TCU DSNT NE/ SE AND NW ACSL N T03060172
KSNA 092053Z 20008KT 10SM FEW060 FEW180 SCT300 32/17 A2991 RMK AO2 SLP127 CB DSNT E TCU DSNT N-NE ACSL N AND NW T03170172 58010
KSNA 091953Z 22008KT 10SM FEW060 FEW180 SCT300 30/17 A2993 RMK AO2 SLP133 TCU DSNT N-NE AND E-SE ACSL W-N T03000167
KSNA 091853Z 22008KT 10SM FEW060 SCT180 SCT300 30/18 A2993 RMK AO2 SLP135 TCU DSNT SE AND NW T03000178
KSNA 091753Z 24006KT 10SM FEW050 FEW120 SCT180 29/17 A2994 RMK AO2 SLP137 T02890172 10294 20228 50002
KSNA 091653Z 19007KT 10SM FEW020 FEW040 SCT120 28/18 A2994 RMK AO2 SLP137 T02830183
KSNA 091553Z 00000KT 10SM FEW020 FEW120 SCT300 27/17 A2994 RMK AO2 SLP137 T02670172
KSNA 091453Z 00000KT 10SM FEW020 FEW120 SCT300 24/19 A2993 RMK AO2 SLP135 T02440189 51014
KSNA 091353Z 00000KT 10SM FEW020 SCT120 SCT300 23/18 A2993 RMK AO2 SLP132 ACSL SW T02330183
KSNA 091253Z 00000KT 10SM SCT120 23/18 A2990 RMK AO2 SLP125 T02280178
KSNA 091153Z AUTO 20004KT 10SM CLR 23/19 A2989 RMK AO2 SLP121 T02330189 10239 20233 55002
KSNA 091053Z AUTO 00000KT 10SM CLR 24/19 A2989 RMK AO2 SLP119 T02390189
KSNA 090953Z AUTO 00000KT 10SM CLR 24/19 A2989 RMK AO2 SLP122 T02390189
KSNA 090853Z AUTO 00000KT 10SM CLR 23/19 A2990 RMK AO2 SLP123 T02330189 58009
KSNA 090753Z AUTO 00000KT 10SM CLR 23/19 A2991 RMK AO2 SLP128 T02330189 402890211
KSNA 090653Z AUTO 00000KT 10SM CLR 23/19 A2993 RMK AO2 SLP134 T02330189
KSNA 090553Z 23004KT 10SM FEW120 BKN280 24/19 A2993 RMK AO2 SLP132 LAST T02390189 10278 20233 51010
KSNA 090453Z 26003KT 10SM SCT110 BKN300 24/19 A2992 RMK AO2 SLP132 T02390189
KSNA 090353Z 22006KT 10SM SCT110 BKN180 BKN300 24/19 A2991 RMK AO2 SLP127 T02390189
KSNA 090253Z COR 22010KT 10SM FEW050 FEW120 BKN180 BKN300 24/18 A2989 RMK AO2 SLP122 ACSL N-SE T02440183 53007